Savonlinna Airport

Airport
ICAO code: 
EFSA
IATA Code: 
SVL
Summary
ICAO Region: 
EUR
Territory: 
Location: 
Makkola, Saimaa Lakes region
Serving: 
Savonlinna
Elevation: 
311 ft
Coordinates: 
Aerial View: 
61° 56' 34.008" N, 28° 56' 42" E
Metar
Observation
EFSA 191820Z AUTO 06005KT CAVOK 09/M03 Q1019
Station
Savonlinna
Date/Time
2022-05-19 18:20:00
Wind direction
60°
Wind speed
05 kts
Lowest cloud amount
clouds and visibility OK
Temperature
9°C
Dew point
-3°C
Humidity
42%
QNH
1019 hPa
Weather condition
n/a

Savonlinna Airport in Finland is about 9 nm north of Savonlinna town centre along the Enonkoskentie road.

Climatology

Cool humid continental climate (Köppen climate classification Dfc)

Runways

Designator Length Width Surface Rops
12/30 2300 45 ASP No/No
Airport map: 
Aerial View: 

Accidents and Serious Incidents at or in the vicinity of EFSA

SKYbrary Partners:

Safety knowledge contributed by: